createdAt,value
2023-01-22T00:01:43.264Z,22.00
2023-01-22T00:04:32.012Z,21.23
2023-01-22T00:07:21.956Z,20.67
2023-01-22T00:10:12.592Z,20.37
2023-01-22T00:13:01.155Z,24.37
2023-01-22T00:15:49.897Z,20.40
2023-01-22T00:18:38.478Z,23.60
2023-01-22T00:21:27.727Z,16.60
2023-01-22T00:24:17.616Z,18.83
2023-01-22T00:27:06.116Z,19.87
2023-01-22T00:29:54.628Z,24.23
2023-01-22T00:32:43.183Z,18.30
2023-01-22T00:35:31.685Z,19.30
2023-01-22T00:38:20.423Z,20.00
2023-01-22T00:41:10.817Z,18.20
2023-01-22T00:43:59.268Z,19.27
2023-01-22T00:46:48.052Z,21.93
2023-01-22T00:49:36.800Z,19.47
2023-01-22T00:52:25.233Z,19.33
2023-01-22T00:55:13.729Z,19.10
2023-01-22T00:58:03.581Z,21.20
2023-01-22T01:00:52.203Z,20.07
2023-01-22T01:03:40.727Z,24.87
2023-01-22T01:06:29.139Z,20.83
2023-01-22T01:09:17.654Z,21.43
2023-01-22T01:12:08.824Z,19.80
2023-01-22T01:14:58.880Z,22.63
2023-01-22T01:17:47.319Z,20.37
2023-01-22T01:20:35.744Z,25.43
2023-01-22T01:23:24.387Z,19.40
2023-01-22T01:26:14.739Z,19.10
2023-01-22T01:29:04.407Z,23.20
2023-01-22T01:31:54.762Z,21.97
2023-01-22T01:34:43.540Z,19.83
2023-01-22T01:37:32.072Z,20.63
2023-01-22T01:40:20.720Z,22.80
2023-01-22T01:43:15.384Z,20.40
2023-01-22T01:46:05.863Z,22.07
2023-01-22T01:48:56.119Z,23.10
2023-01-22T01:51:45.049Z,21.30
2023-01-22T01:54:33.625Z,23.70
2023-01-22T01:57:24.105Z,24.23
2023-01-22T02:00:14.225Z,24.20
2023-01-22T02:03:02.827Z,21.77
2023-01-22T02:05:52.647Z,22.40
2023-01-22T02:08:42.343Z,20.80
2023-01-22T02:11:31.939Z,22.47
2023-01-22T02:14:24.122Z,20.60
2023-01-22T02:17:14.478Z,23.50
2023-01-22T02:20:02.951Z,22.43
2023-01-22T02:22:52.726Z,23.33
2023-01-22T02:25:41.215Z,28.77
2023-01-22T02:28:29.689Z,28.20
2023-01-22T02:31:18.236Z,26.50
2023-01-22T02:34:07.312Z,25.57
2023-01-22T02:36:55.835Z,27.57
2023-01-22T02:39:45.714Z,24.37
2023-01-22T02:42:34.250Z,24.03
2023-01-22T02:45:22.806Z,23.67
2023-01-22T02:48:11.307Z,28.93
2023-01-22T02:50:59.773Z,24.87
2023-01-22T02:53:48.346Z,23.73
2023-01-22T02:56:38.170Z,26.77
2023-01-22T02:59:26.822Z,27.10
2023-01-22T03:02:15.437Z,28.07
2023-01-22T03:05:04.795Z,28.30
2023-01-22T03:07:53.315Z,29.30
2023-01-22T03:10:41.877Z,29.60
2023-01-22T03:13:49.111Z,25.40
2023-01-22T03:16:55.036Z,27.17
2023-01-22T03:20:01.087Z,27.80
2023-01-22T03:22:49.523Z,25.77
2023-01-22T03:25:38.148Z,27.23
2023-01-22T03:28:26.617Z,29.67
2023-01-22T03:31:17.226Z,27.60
2023-01-22T03:34:05.877Z,29.13
2023-01-22T03:36:54.366Z,30.67
2023-01-22T03:39:43.272Z,30.27
2023-01-22T03:42:31.794Z,30.70
2023-01-22T03:45:20.246Z,24.97
2023-01-22T03:48:10.302Z,27.77
2023-01-22T03:51:03.997Z,26.13
2023-01-22T03:53:52.487Z,27.00
2023-01-22T03:56:41.721Z,25.47
2023-01-22T03:59:30.236Z,27.23
2023-01-22T04:02:18.707Z,26.70
2023-01-22T04:05:09.504Z,25.40
2023-01-22T04:07:57.928Z,25.90
2023-01-22T04:10:46.664Z,26.23
2023-01-22T04:13:35.980Z,29.07
2023-01-22T04:16:24.528Z,29.77
2023-01-22T04:19:13.135Z,27.50
2023-01-22T04:22:03.059Z,25.13
2023-01-22T04:24:51.534Z,30.47
2023-01-22T04:27:40.058Z,21.83
2023-01-22T04:30:28.685Z,24.23
2023-01-22T04:33:17.224Z,31.60
2023-01-22T04:36:06.156Z,24.73
2023-01-22T04:38:56.027Z,26.17
2023-01-22T04:41:44.526Z,32.67
2023-01-22T04:44:32.973Z,26.13
2023-01-22T04:47:21.465Z,23.63
2023-01-22T04:50:15.663Z,23.57
2023-01-22T04:53:05.070Z,27.40
2023-01-22T04:55:54.909Z,30.33
2023-01-22T04:58:43.411Z,24.50
2023-01-22T05:01:31.937Z,26.33
2023-01-22T05:04:21.745Z,26.57
2023-01-22T05:07:10.188Z,20.40
2023-01-22T05:09:58.672Z,28.33
2023-01-22T05:12:48.784Z,23.53
2023-01-22T05:15:37.311Z,26.60
2023-01-22T05:18:25.845Z,26.37
2023-01-22T05:21:14.254Z,25.73
2023-01-22T05:24:02.697Z,25.07
2023-01-22T05:26:51.147Z,27.60
2023-01-22T05:29:41.006Z,26.13
2023-01-22T05:32:29.574Z,24.67
2023-01-22T05:35:18.120Z,24.87
2023-01-22T05:38:06.580Z,23.73
2023-01-22T05:40:55.055Z,24.40
2023-01-22T05:43:43.527Z,21.93
2023-01-22T05:46:33.640Z,25.47
2023-01-22T05:49:22.107Z,25.53
2023-01-22T05:52:11.408Z,21.17
2023-01-22T05:55:01.833Z,27.93
2023-01-22T05:57:50.355Z,24.47
2023-01-22T06:00:38.878Z,21.60
2023-01-22T06:03:28.778Z,20.60
2023-01-22T06:06:17.418Z,20.60
2023-01-22T06:09:06.062Z,20.33
2023-01-22T06:11:54.552Z,19.40
2023-01-22T06:14:43.077Z,19.47
2023-01-22T06:17:31.558Z,21.43
2023-01-22T06:20:21.414Z,18.47
2023-01-22T06:23:09.897Z,17.30
2023-01-22T06:25:59.612Z,15.37
2023-01-22T06:28:48.090Z,17.83
2023-01-22T06:31:37.136Z,16.67
2023-01-22T06:34:26.101Z,17.87
2023-01-22T06:37:15.917Z,16.43
2023-01-22T06:40:04.904Z,19.50
2023-01-22T06:42:53.370Z,16.63
2023-01-22T06:45:41.868Z,17.20
2023-01-22T06:48:30.312Z,17.17
2023-01-22T06:51:18.825Z,15.43
2023-01-22T06:54:11.952Z,17.47
2023-01-22T06:57:00.455Z,17.63
2023-01-22T06:59:48.882Z,14.60
2023-01-22T07:02:37.339Z,17.20
2023-01-22T07:05:27.398Z,16.53
2023-01-22T07:08:16.427Z,15.67
2023-01-22T07:11:07.888Z,16.77
2023-01-22T07:13:56.480Z,15.60
2023-01-22T07:16:44.971Z,18.50
2023-01-22T07:19:33.690Z,16.20
2023-01-22T07:22:22.161Z,17.03
2023-01-22T07:25:10.954Z,15.93
2023-01-22T07:28:01.556Z,16.90
2023-01-22T07:30:50.215Z,18.83
2023-01-22T07:33:38.754Z,15.93
2023-01-22T07:36:27.328Z,16.67
2023-01-22T07:39:15.814Z,18.70
2023-01-22T07:42:04.475Z,21.23
2023-01-22T07:44:54.315Z,19.13
2023-01-22T07:47:42.713Z,16.60
2023-01-22T07:50:32.906Z,21.17
2023-01-22T07:53:21.386Z,18.67
2023-01-22T07:56:09.875Z,18.23
2023-01-22T07:58:58.402Z,17.93
2023-01-22T08:01:48.277Z,16.47
2023-01-22T08:04:36.906Z,17.33
2023-01-22T08:07:27.633Z,17.47
2023-01-22T08:10:17.363Z,17.27
2023-01-22T08:13:06.044Z,15.30
2023-01-22T08:15:55.646Z,16.33
2023-01-22T08:18:45.515Z,15.63
2023-01-22T08:21:35.145Z,13.47
2023-01-22T08:24:23.721Z,13.57
2023-01-22T08:27:12.220Z,17.00
2023-01-22T08:30:00.720Z,15.13
2023-01-22T08:32:50.392Z,13.60
2023-01-22T08:35:40.772Z,13.40
2023-01-22T08:38:29.412Z,14.60
2023-01-22T08:41:17.918Z,15.57
2023-01-22T08:44:06.685Z,15.27
2023-01-22T08:46:55.118Z,13.87
2023-01-22T08:49:43.664Z,13.93
2023-01-22T08:52:33.532Z,13.33
2023-01-22T08:55:22.036Z,13.67
2023-01-22T08:58:10.728Z,13.37
2023-01-22T09:00:59.278Z,15.20
2023-01-22T09:03:48.695Z,12.13
2023-01-22T09:06:38.115Z,14.07
2023-01-22T09:09:27.954Z,14.57
2023-01-22T09:12:16.481Z,14.57
2023-01-22T09:15:05.492Z,13.63
2023-01-22T09:17:54.076Z,13.07
2023-01-22T09:20:42.608Z,12.97
2023-01-22T09:23:31.109Z,12.17
2023-01-22T09:26:21.046Z,12.57
2023-01-22T09:29:09.510Z,14.27
2023-01-22T09:31:58.057Z,11.30
2023-01-22T09:34:46.534Z,13.07
2023-01-22T09:37:35.037Z,13.20
2023-01-22T09:40:27.286Z,13.07
2023-01-22T09:43:26.988Z,14.60
2023-01-22T09:46:18.463Z,13.13
2023-01-22T09:49:11.747Z,13.70
2023-01-22T09:52:02.298Z,13.30
2023-01-22T09:54:52.174Z,15.00
2023-01-22T09:57:41.734Z,14.40
2023-01-22T10:00:37.684Z,12.73
2023-01-22T10:03:31.376Z,12.20
2023-01-22T10:06:22.954Z,15.00
2023-01-22T10:09:15.291Z,14.13
2023-01-22T10:12:13.654Z,13.13
2023-01-22T10:15:02.188Z,13.93
2023-01-22T10:17:52.602Z,14.97
2023-01-22T10:20:41.600Z,17.53
2023-01-22T10:23:32.500Z,12.83
2023-01-22T10:26:25.058Z,12.97
2023-01-22T10:29:16.031Z,14.37
2023-01-22T10:32:15.208Z,15.77
2023-01-22T10:35:07.689Z,14.83
2023-01-22T10:37:57.407Z,13.47
2023-01-22T10:40:45.990Z,16.73
2023-01-22T10:43:36.265Z,15.70
2023-01-22T10:46:26.223Z,17.03
2023-01-22T10:49:16.957Z,14.93
2023-01-22T10:52:16.733Z,12.10
2023-01-22T10:55:05.655Z,12.63
2023-01-22T10:57:56.950Z,14.10
2023-01-22T11:00:52.331Z,13.23
2023-01-22T11:03:40.988Z,17.40
2023-01-22T11:06:36.663Z,13.97
2023-01-22T11:09:32.282Z,15.00
2023-01-22T11:12:23.637Z,11.87
2023-01-22T11:15:24.083Z,13.93
2023-01-22T11:18:18.286Z,13.77
2023-01-22T11:21:14.322Z,13.60
2023-01-22T11:24:05.781Z,13.77
2023-01-22T11:27:05.122Z,12.47
2023-01-22T11:30:05.742Z,13.80
2023-01-22T11:33:02.895Z,14.30
2023-01-22T11:35:55.077Z,12.00
2023-01-22T11:38:49.825Z,14.50
2023-01-22T11:41:55.358Z,14.10
2023-01-22T11:44:58.404Z,14.63
2023-01-22T11:48:05.282Z,19.57
2023-01-22T11:51:00.516Z,15.20
2023-01-22T11:53:58.752Z,12.30
2023-01-22T11:56:53.025Z,12.97
2023-01-22T11:59:54.941Z,13.63
2023-01-22T12:03:20.849Z,13.77
2023-01-22T12:06:19.973Z,12.30
2023-01-22T12:09:11.924Z,11.20
2023-01-22T12:12:12.501Z,11.00
2023-01-22T12:15:25.189Z,10.63
2023-01-22T12:18:38.840Z,11.20
2023-01-22T12:21:40.409Z,11.03
2023-01-22T12:24:33.139Z,11.13
2023-01-22T12:27:25.393Z,9.27
2023-01-22T12:30:20.971Z,10.03
2023-01-22T12:33:13.596Z,10.13
2023-01-22T12:36:03.910Z,11.13
2023-01-22T12:38:55.612Z,10.70
2023-01-22T12:41:48.315Z,9.63
2023-01-22T12:44:50.029Z,9.43
2023-01-22T12:47:52.047Z,8.80
2023-01-22T12:50:50.088Z,9.93
2023-01-22T12:53:39.238Z,9.87
2023-01-22T12:56:32.294Z,10.90
2023-01-22T12:59:42.958Z,9.47
2023-01-22T13:02:39.112Z,9.83
2023-01-22T13:05:41.404Z,10.20
2023-01-22T13:08:39.295Z,9.07
2023-01-22T13:11:30.572Z,9.47
2023-01-22T13:14:21.331Z,9.93
2023-01-22T13:17:21.410Z,9.50
2023-01-22T13:20:16.899Z,9.70
2023-01-22T13:23:08.077Z,9.83
2023-01-22T13:25:58.435Z,7.90
2023-01-22T13:28:55.438Z,11.40
2023-01-22T13:31:52.254Z,9.57
2023-01-22T13:34:40.801Z,10.87
2023-01-22T13:37:30.817Z,10.10
2023-01-22T13:40:25.727Z,12.03
2023-01-22T13:43:16.508Z,10.60
2023-01-22T13:46:05.815Z,10.50
2023-01-22T13:49:06.257Z,10.90
2023-01-22T13:51:55.361Z,8.53
2023-01-22T13:54:47.945Z,8.90
2023-01-22T13:57:37.847Z,10.80
2023-01-22T14:00:28.874Z,13.13
2023-01-22T14:03:22.970Z,9.33
2023-01-22T14:06:13.925Z,12.23
2023-01-22T14:09:02.706Z,13.23
2023-01-22T14:11:51.234Z,9.80
2023-01-22T14:14:41.871Z,9.90
2023-01-22T14:17:34.068Z,11.50
2023-01-22T14:20:22.611Z,9.00
2023-01-22T14:23:11.146Z,9.60
2023-01-22T14:26:02.848Z,9.20
2023-01-22T14:28:51.358Z,9.93
2023-01-22T14:31:41.325Z,10.13
2023-01-22T14:34:29.842Z,10.37
2023-01-22T14:37:18.958Z,10.50
2023-01-22T14:40:09.765Z,10.47
2023-01-22T14:43:00.896Z,9.00
2023-01-22T14:45:49.474Z,11.20
2023-01-22T14:48:39.739Z,9.37
2023-01-22T14:51:28.290Z,12.20
2023-01-22T14:54:16.730Z,9.50
2023-01-22T14:57:05.322Z,10.43
2023-01-22T14:59:53.758Z,10.53
2023-01-22T15:02:42.295Z,30.40
2023-01-22T15:05:35.338Z,19.07
2023-01-22T15:08:24.251Z,11.50
2023-01-22T15:11:12.742Z,12.50
2023-01-22T15:14:01.222Z,14.10
2023-01-22T15:16:49.717Z,15.83
2023-01-22T15:19:41.443Z,27.53
2023-01-22T15:22:31.690Z,19.83
2023-01-22T15:28:06.357Z,15.87
2023-01-22T15:30:56.741Z,18.00
2023-01-22T15:33:45.359Z,22.37
2023-01-22T15:36:35.789Z,18.90
2023-01-22T15:39:25.734Z,18.30
2023-01-22T15:42:14.401Z,18.30
2023-01-22T15:45:03.480Z,15.07
2023-01-22T15:47:53.463Z,16.60
2023-01-22T15:50:41.939Z,15.40
2023-01-22T15:53:30.441Z,14.47
2023-01-22T15:56:21.296Z,12.87
2023-01-22T15:59:09.957Z,12.07
2023-01-22T16:01:58.467Z,14.50
2023-01-22T16:04:46.998Z,13.33
2023-01-22T16:07:35.469Z,13.33
2023-01-22T16:10:24.066Z,13.17
2023-01-22T16:13:13.960Z,14.53
2023-01-22T16:16:04.017Z,17.17
2023-01-22T16:18:52.876Z,15.63
2023-01-22T16:21:41.366Z,15.90
2023-01-22T16:24:30.183Z,14.20
2023-01-22T16:27:18.757Z,14.47
2023-01-22T16:30:10.287Z,19.43
2023-01-22T16:32:58.780Z,15.93
2023-01-22T16:35:47.378Z,17.13
2023-01-22T16:38:37.084Z,13.53
2023-01-22T16:41:28.531Z,12.50
2023-01-22T16:44:18.285Z,13.17
2023-01-22T16:47:08.184Z,13.37
2023-01-22T16:49:56.743Z,14.10
2023-01-22T16:52:45.269Z,12.60
2023-01-22T16:55:33.796Z,13.93
2023-01-22T16:58:22.476Z,12.87
2023-01-22T17:01:13.557Z,12.00
2023-01-22T17:04:03.535Z,13.70
2023-01-22T17:06:53.762Z,15.83
2023-01-22T17:09:42.295Z,13.37
2023-01-22T17:12:30.960Z,13.00
2023-01-22T17:15:19.528Z,16.23
2023-01-22T17:18:08.178Z,13.03
2023-01-22T17:21:02.709Z,15.80
2023-01-22T17:23:51.307Z,16.30
2023-01-22T17:26:39.974Z,16.53
2023-01-22T17:29:28.520Z,14.60
2023-01-22T17:32:17.069Z,13.20
2023-01-22T17:35:06.375Z,15.70
2023-01-22T17:37:56.301Z,14.37
2023-01-22T17:40:44.839Z,14.50
2023-01-22T17:43:33.896Z,14.80
2023-01-22T17:46:23.930Z,13.73
2023-01-22T17:49:12.562Z,13.57
2023-01-22T17:52:01.205Z,12.40
2023-01-22T17:54:53.492Z,15.43
2023-01-22T17:57:42.175Z,13.83
2023-01-22T18:00:31.979Z,22.17
2023-01-22T18:03:20.773Z,15.10
2023-01-22T18:06:09.540Z,13.30
2023-01-22T18:08:58.525Z,13.73
2023-01-22T18:11:48.909Z,14.40
2023-01-22T18:14:38.061Z,14.50
2023-01-22T18:17:26.659Z,14.83
2023-01-22T18:20:15.370Z,14.00
2023-01-22T18:23:03.956Z,15.20
2023-01-22T18:25:56.251Z,14.20
2023-01-22T18:28:46.342Z,15.80
2023-01-22T18:31:35.341Z,16.67
2023-01-22T18:34:24.291Z,15.40
2023-01-22T18:37:13.111Z,15.00
2023-01-22T18:40:01.929Z,14.83
2023-01-22T18:42:50.955Z,15.30
2023-01-22T18:45:41.737Z,14.53
2023-01-22T18:48:30.281Z,14.90
2023-01-22T18:51:18.892Z,16.30
2023-01-22T18:54:07.414Z,13.30
2023-01-22T18:56:56.253Z,14.10
2023-01-22T18:59:44.865Z,15.27
2023-01-22T19:02:34.841Z,16.63
2023-01-22T19:05:24.566Z,17.70
2023-01-22T19:08:13.143Z,15.60
2023-01-22T19:11:06.678Z,16.70
2023-01-22T19:13:56.323Z,21.13
2023-01-22T19:16:48.276Z,18.47
2023-01-22T19:19:38.349Z,15.87
2023-01-22T19:22:26.895Z,18.73
2023-01-22T19:25:15.431Z,17.20
2023-01-22T19:28:04.009Z,15.90
2023-01-22T19:30:52.852Z,16.63
2023-01-22T19:33:41.380Z,17.17
2023-01-22T19:36:32.695Z,17.87
2023-01-22T19:39:21.433Z,15.50
2023-01-22T19:42:10.047Z,17.13
2023-01-22T19:44:58.681Z,24.40
2023-01-22T19:47:47.352Z,26.93
2023-01-22T19:50:36.025Z,23.10
2023-01-22T19:53:26.253Z,23.80
2023-01-22T19:56:18.575Z,23.33
2023-01-22T19:59:09.475Z,21.70
2023-01-22T20:01:58.234Z,25.67
2023-01-22T20:04:47.016Z,29.73
2023-01-22T20:07:36.251Z,26.50
2023-01-22T20:10:26.221Z,25.27
2023-01-22T20:13:14.771Z,29.53
2023-01-22T20:16:03.677Z,23.37
2023-01-22T20:18:53.397Z,24.10
2023-01-22T20:21:41.953Z,26.57
2023-01-22T20:24:30.610Z,24.53
2023-01-22T20:27:20.527Z,29.70
2023-01-22T20:30:10.606Z,30.50
2023-01-22T20:32:59.197Z,34.67
2023-01-22T20:35:47.728Z,32.70
2023-01-22T20:38:36.752Z,37.20
2023-01-22T20:41:27.399Z,37.43
2023-01-22T20:44:17.517Z,28.50
2023-01-22T20:47:06.407Z,26.73
2023-01-22T20:49:55.001Z,28.07
2023-01-22T20:52:43.621Z,26.63
2023-01-22T20:55:32.218Z,27.43
2023-01-22T20:58:20.786Z,26.40
2023-01-22T21:01:14.607Z,26.03
2023-01-22T21:04:03.658Z,23.20
2023-01-22T21:06:52.262Z,21.90
2023-01-22T21:09:41.066Z,27.70
2023-01-22T21:12:29.666Z,22.33
2023-01-22T21:15:18.302Z,24.30
2023-01-22T21:18:08.191Z,22.57
2023-01-22T21:20:56.668Z,22.97
2023-01-22T21:23:45.946Z,24.93
2023-01-22T21:26:34.651Z,22.43
2023-01-22T21:29:24.455Z,20.27
2023-01-22T21:32:13.038Z,24.03
2023-01-22T21:35:03.945Z,24.90
2023-01-22T21:37:52.531Z,20.60
2023-01-22T21:40:41.056Z,24.53
2023-01-22T21:43:46.981Z,22.60
2023-01-22T21:46:37.350Z,24.17
2023-01-22T21:49:25.926Z,22.43
2023-01-22T21:52:15.826Z,29.60
2023-01-22T21:55:05.221Z,33.80
2023-01-22T21:57:53.764Z,23.70
2023-01-22T22:00:42.279Z,19.23
2023-01-22T22:03:32.713Z,19.50
2023-01-22T22:06:21.334Z,19.03
2023-01-22T22:09:22.716Z,20.00
2023-01-22T22:12:11.395Z,22.00
2023-01-22T22:14:59.987Z,24.53
2023-01-22T22:17:48.942Z,22.97
2023-01-22T22:20:37.893Z,27.07
2023-01-22T22:23:26.418Z,30.13
2023-01-22T22:26:16.511Z,28.67
2023-01-22T22:29:05.562Z,24.33
2023-01-22T22:31:54.122Z,25.50
2023-01-22T22:34:43.077Z,24.23
2023-01-22T22:37:31.689Z,21.27
2023-01-22T22:40:20.549Z,21.77
2023-01-22T22:43:10.719Z,19.80
2023-01-22T22:46:02.871Z,24.90
2023-01-22T22:48:51.604Z,21.97
2023-01-22T22:51:41.861Z,22.73
2023-01-22T22:54:30.414Z,22.13
2023-01-22T22:57:18.848Z,26.17
2023-01-22T23:00:13.157Z,18.97
2023-01-22T23:03:01.691Z,20.07
2023-01-22T23:05:50.226Z,21.70
2023-01-22T23:08:39.041Z,20.43
2023-01-22T23:11:30.023Z,21.30
2023-01-22T23:14:18.690Z,23.63
2023-01-22T23:17:08.562Z,22.00
2023-01-22T23:19:57.089Z,21.00
2023-01-22T23:22:46.493Z,22.53
2023-01-22T23:25:35.361Z,19.03
2023-01-22T23:28:23.885Z,16.93
2023-01-22T23:31:14.036Z,20.17
2023-01-22T23:34:05.339Z,19.70
2023-01-22T23:36:53.896Z,17.63
2023-01-22T23:39:42.438Z,18.43
2023-01-22T23:42:30.950Z,18.83
2023-01-22T23:45:19.520Z,22.40
2023-01-22T23:48:08.053Z,18.50
2023-01-22T23:50:58.019Z,19.43
2023-01-22T23:53:48.342Z,17.00
2023-01-22T23:56:37.402Z,19.53
2023-01-22T23:59:25.934Z,19.47
